sensor_id;sensor_type;location;lat;lon;timestamp;temperature;humidity
66013;DHT22;52783;50.502;8.190;2022-07-18T00:00:59;19.30;38.20
66013;DHT22;52783;50.502;8.190;2022-07-18T00:03:25;19.30;38.20
66013;DHT22;52783;50.502;8.190;2022-07-18T00:05:51;19.30;38.10
66013;DHT22;52783;50.502;8.190;2022-07-18T00:08:17;19.30;38.70
66013;DHT22;52783;50.502;8.190;2022-07-18T00:10:42;19.30;38.50
66013;DHT22;52783;50.502;8.190;2022-07-18T00:13:08;19.20;38.50
66013;DHT22;52783;50.502;8.190;2022-07-18T00:15:35;19.30;38.50
66013;DHT22;52783;50.502;8.190;2022-07-18T00:18:02;19.20;38.40
66013;DHT22;52783;50.502;8.190;2022-07-18T00:20:28;19.20;38.50
66013;DHT22;52783;50.502;8.190;2022-07-18T00:22:54;19.10;38.90
66013;DHT22;52783;50.502;8.190;2022-07-18T00:25:20;19.10;38.90
66013;DHT22;52783;50.502;8.190;2022-07-18T00:27:46;19.10;38.90
66013;DHT22;52783;50.502;8.190;2022-07-18T00:30:11;19.00;39.00
66013;DHT22;52783;50.502;8.190;2022-07-18T00:32:37;19.00;39.00
66013;DHT22;52783;50.502;8.190;2022-07-18T00:35:03;19.00;39.30
66013;DHT22;52783;50.502;8.190;2022-07-18T00:37:28;18.90;38.80
66013;DHT22;52783;50.502;8.190;2022-07-18T00:39:54;18.90;39.30
66013;DHT22;52783;50.502;8.190;2022-07-18T00:42:20;18.90;39.10
66013;DHT22;52783;50.502;8.190;2022-07-18T00:44:46;18.80;39.30
66013;DHT22;52783;50.502;8.190;2022-07-18T00:47:11;18.80;39.60
66013;DHT22;52783;50.502;8.190;2022-07-18T00:49:37;18.70;39.60
66013;DHT22;52783;50.502;8.190;2022-07-18T00:52:03;18.70;40.10
66013;DHT22;52783;50.502;8.190;2022-07-18T00:54:29;18.60;40.20
66013;DHT22;52783;50.502;8.190;2022-07-18T00:56:58;18.50;40.40
66013;DHT22;52783;50.502;8.190;2022-07-18T00:59:24;18.40;40.70
66013;DHT22;52783;50.502;8.190;2022-07-18T01:02:10;18.40;40.60
66013;DHT22;52783;50.502;8.190;2022-07-18T01:04:36;18.40;40.40
66013;DHT22;52783;50.502;8.190;2022-07-18T01:07:01;18.40;40.40
66013;DHT22;52783;50.502;8.190;2022-07-18T01:09:27;18.40;40.10
66013;DHT22;52783;50.502;8.190;2022-07-18T01:11:52;18.40;40.20
66013;DHT22;52783;50.502;8.190;2022-07-18T01:14:18;18.40;40.30
66013;DHT22;52783;50.502;8.190;2022-07-18T01:16:44;18.40;40.50
66013;DHT22;52783;50.502;8.190;2022-07-18T01:19:10;18.30;40.30
66013;DHT22;52783;50.502;8.190;2022-07-18T01:21:36;18.30;40.30
66013;DHT22;52783;50.502;8.190;2022-07-18T01:24:03;18.30;40.40
66013;DHT22;52783;50.502;8.190;2022-07-18T01:26:28;18.30;40.30
66013;DHT22;52783;50.502;8.190;2022-07-18T01:28:54;18.30;40.20
66013;DHT22;52783;50.502;8.190;2022-07-18T01:31:19;18.30;40.30
66013;DHT22;52783;50.502;8.190;2022-07-18T01:33:45;18.30;40.20
66013;DHT22;52783;50.502;8.190;2022-07-18T01:36:11;18.30;39.90
66013;DHT22;52783;50.502;8.190;2022-07-18T01:38:37;18.30;39.90
66013;DHT22;52783;50.502;8.190;2022-07-18T01:41:03;18.30;39.90
66013;DHT22;52783;50.502;8.190;2022-07-18T01:43:29;18.30;39.80
66013;DHT22;52783;50.502;8.190;2022-07-18T01:45:55;18.30;39.60
66013;DHT22;52783;50.502;8.190;2022-07-18T01:48:20;18.30;39.60
66013;DHT22;52783;50.502;8.190;2022-07-18T01:50:48;18.30;39.70
66013;DHT22;52783;50.502;8.190;2022-07-18T01:53:14;18.30;39.70
66013;DHT22;52783;50.502;8.190;2022-07-18T01:55:39;18.30;39.70
66013;DHT22;52783;50.502;8.190;2022-07-18T01:58:05;18.30;39.60
66013;DHT22;52783;50.502;8.190;2022-07-18T02:00:31;18.30;39.80
66013;DHT22;52783;50.502;8.190;2022-07-18T02:02:56;18.30;39.70
66013;DHT22;52783;50.502;8.190;2022-07-18T02:05:22;18.30;39.80
66013;DHT22;52783;50.502;8.190;2022-07-18T02:07:47;18.30;39.60
66013;DHT22;52783;50.502;8.190;2022-07-18T02:10:16;18.30;40.10
66013;DHT22;52783;50.502;8.190;2022-07-18T02:12:42;18.30;40.90
66013;DHT22;52783;50.502;8.190;2022-07-18T02:15:09;18.30;41.80
66013;DHT22;52783;50.502;8.190;2022-07-18T02:17:35;18.20;42.10
66013;DHT22;52783;50.502;8.190;2022-07-18T02:20:02;18.10;42.10
66013;DHT22;52783;50.502;8.190;2022-07-18T02:22:27;18.00;41.70
66013;DHT22;52783;50.502;8.190;2022-07-18T02:24:53;18.10;40.50
66013;DHT22;52783;50.502;8.190;2022-07-18T02:27:19;18.00;41.70
66013;DHT22;52783;50.502;8.190;2022-07-18T02:29:45;17.90;43.40
66013;DHT22;52783;50.502;8.190;2022-07-18T02:32:10;17.70;43.70
66013;DHT22;52783;50.502;8.190;2022-07-18T02:34:36;17.60;44.50
66013;DHT22;52783;50.502;8.190;2022-07-18T02:37:03;17.40;46.30
66013;DHT22;52783;50.502;8.190;2022-07-18T02:39:29;17.10;46.50
66013;DHT22;52783;50.502;8.190;2022-07-18T02:41:54;16.70;49.40
66013;DHT22;52783;50.502;8.190;2022-07-18T02:44:20;16.60;50.80
66013;DHT22;52783;50.502;8.190;2022-07-18T02:46:46;16.50;51.70
66013;DHT22;52783;50.502;8.190;2022-07-18T02:49:12;16.30;52.50
66013;DHT22;52783;50.502;8.190;2022-07-18T02:51:56;16.30;51.70
66013;DHT22;52783;50.502;8.190;2022-07-18T02:54:23;16.60;47.50
66013;DHT22;52783;50.502;8.190;2022-07-18T02:56:49;16.80;47.90
66013;DHT22;52783;50.502;8.190;2022-07-18T02:59:14;16.80;46.60
66013;DHT22;52783;50.502;8.190;2022-07-18T03:01:40;16.90;47.70
66013;DHT22;52783;50.502;8.190;2022-07-18T03:04:06;16.90;45.20
66013;DHT22;52783;50.502;8.190;2022-07-18T03:06:31;17.00;44.80
66013;DHT22;52783;50.502;8.190;2022-07-18T03:08:57;17.10;44.60
66013;DHT22;52783;50.502;8.190;2022-07-18T03:11:22;17.10;45.00
66013;DHT22;52783;50.502;8.190;2022-07-18T03:13:48;17.10;44.90
66013;DHT22;52783;50.502;8.190;2022-07-18T03:16:13;17.10;44.70
66013;DHT22;52783;50.502;8.190;2022-07-18T03:18:39;17.00;46.80
66013;DHT22;52783;50.502;8.190;2022-07-18T03:21:04;16.70;48.90
66013;DHT22;52783;50.502;8.190;2022-07-18T03:23:30;16.50;50.20
66013;DHT22;52783;50.502;8.190;2022-07-18T03:25:55;16.30;50.80
66013;DHT22;52783;50.502;8.190;2022-07-18T03:28:21;16.10;52.30
66013;DHT22;52783;50.502;8.190;2022-07-18T03:30:46;16.10;53.00
66013;DHT22;52783;50.502;8.190;2022-07-18T03:33:12;16.10;52.70
66013;DHT22;52783;50.502;8.190;2022-07-18T03:35:38;16.10;52.70
66013;DHT22;52783;50.502;8.190;2022-07-18T03:38:03;16.20;50.80
66013;DHT22;52783;50.502;8.190;2022-07-18T03:40:29;16.10;51.70
66013;DHT22;52783;50.502;8.190;2022-07-18T03:42:54;16.10;52.30
66013;DHT22;52783;50.502;8.190;2022-07-18T03:45:20;16.10;53.00
66013;DHT22;52783;50.502;8.190;2022-07-18T03:47:45;16.20;52.90
66013;DHT22;52783;50.502;8.190;2022-07-18T03:50:11;16.20;51.70
66013;DHT22;52783;50.502;8.190;2022-07-18T03:52:36;16.10;52.30
66013;DHT22;52783;50.502;8.190;2022-07-18T03:55:02;16.00;52.00
66013;DHT22;52783;50.502;8.190;2022-07-18T03:57:28;16.10;52.30
66013;DHT22;52783;50.502;8.190;2022-07-18T03:59:54;15.90;53.10
66013;DHT22;52783;50.502;8.190;2022-07-18T04:02:19;15.90;53.80
66013;DHT22;52783;50.502;8.190;2022-07-18T04:04:45;16.00;53.60
66013;DHT22;52783;50.502;8.190;2022-07-18T04:07:10;16.10;54.10
66013;DHT22;52783;50.502;8.190;2022-07-18T04:09:36;15.80;52.40
66013;DHT22;52783;50.502;8.190;2022-07-18T04:12:01;15.90;52.50
66013;DHT22;52783;50.502;8.190;2022-07-18T04:14:27;15.90;52.90
66013;DHT22;52783;50.502;8.190;2022-07-18T04:16:52;15.90;53.40
66013;DHT22;52783;50.502;8.190;2022-07-18T04:19:18;16.00;53.50
66013;DHT22;52783;50.502;8.190;2022-07-18T04:21:44;16.10;53.90
66013;DHT22;52783;50.502;8.190;2022-07-18T04:24:10;16.30;54.40
66013;DHT22;52783;50.502;8.190;2022-07-18T04:26:36;16.30;53.30
66013;DHT22;52783;50.502;8.190;2022-07-18T04:29:02;16.40;53.40
66013;DHT22;52783;50.502;8.190;2022-07-18T04:31:27;16.60;53.50
66013;DHT22;52783;50.502;8.190;2022-07-18T04:33:53;16.60;52.20
66013;DHT22;52783;50.502;8.190;2022-07-18T04:36:19;16.90;52.40
66013;DHT22;52783;50.502;8.190;2022-07-18T04:38:44;17.20;51.90
66013;DHT22;52783;50.502;8.190;2022-07-18T04:41:10;17.60;51.00
66013;DHT22;52783;50.502;8.190;2022-07-18T04:43:35;18.10;50.10
66013;DHT22;52783;50.502;8.190;2022-07-18T04:46:01;18.40;49.80
66013;DHT22;52783;50.502;8.190;2022-07-18T04:48:27;18.60;49.40
66013;DHT22;52783;50.502;8.190;2022-07-18T04:50:52;19.00;48.90
66013;DHT22;52783;50.502;8.190;2022-07-18T04:53:18;19.70;47.40
66013;DHT22;52783;50.502;8.190;2022-07-18T04:55:43;20.10;45.70
66013;DHT22;52783;50.502;8.190;2022-07-18T04:58:09;20.30;44.90
66013;DHT22;52783;50.502;8.190;2022-07-18T05:00:35;20.30;44.50
66013;DHT22;52783;50.502;8.190;2022-07-18T05:03:01;20.30;44.80
66013;DHT22;52783;50.502;8.190;2022-07-18T05:05:27;20.40;44.80
66013;DHT22;52783;50.502;8.190;2022-07-18T05:07:53;20.30;45.10
66013;DHT22;52783;50.502;8.190;2022-07-18T05:10:21;21.20;43.30
66013;DHT22;52783;50.502;8.190;2022-07-18T05:12:50;21.50;41.60
66013;DHT22;52783;50.502;8.190;2022-07-18T05:15:18;21.40;40.70
66013;DHT22;52783;50.502;8.190;2022-07-18T05:17:44;21.60;40.30
66013;DHT22;52783;50.502;8.190;2022-07-18T05:20:13;22.00;40.50
66013;DHT22;52783;50.502;8.190;2022-07-18T05:22:39;22.50;39.50
66013;DHT22;52783;50.502;8.190;2022-07-18T05:25:06;22.80;38.80
66013;DHT22;52783;50.502;8.190;2022-07-18T05:27:32;23.30;37.50
66013;DHT22;52783;50.502;8.190;2022-07-18T05:29:58;23.70;36.90
66013;DHT22;52783;50.502;8.190;2022-07-18T05:32:25;24.10;36.00
66013;DHT22;52783;50.502;8.190;2022-07-18T05:34:50;24.40;35.20
66013;DHT22;52783;50.502;8.190;2022-07-18T05:37:16;24.90;34.20
66013;DHT22;52783;50.502;8.190;2022-07-18T05:39:42;25.30;32.90
66013;DHT22;52783;50.502;8.190;2022-07-18T05:42:07;25.70;31.80
66013;DHT22;52783;50.502;8.190;2022-07-18T05:44:33;25.30;31.60
66013;DHT22;52783;50.502;8.190;2022-07-18T05:46:58;25.60;31.30
66013;DHT22;52783;50.502;8.190;2022-07-18T05:49:24;25.40;31.80
66013;DHT22;52783;50.502;8.190;2022-07-18T05:51:49;25.90;32.70
66013;DHT22;52783;50.502;8.190;2022-07-18T05:54:15;26.00;32.70
66013;DHT22;52783;50.502;8.190;2022-07-18T05:56:49;26.50;31.70
66013;DHT22;52783;50.502;8.190;2022-07-18T05:59:16;26.70;29.40
66013;DHT22;52783;50.502;8.190;2022-07-18T06:01:41;27.30;29.70
66013;DHT22;52783;50.502;8.190;2022-07-18T06:04:07;27.70;28.50
66013;DHT22;52783;50.502;8.190;2022-07-18T06:06:32;27.90;28.60
66013;DHT22;52783;50.502;8.190;2022-07-18T06:08:58;28.30;27.60
66013;DHT22;52783;50.502;8.190;2022-07-18T06:11:24;27.90;27.00
66013;DHT22;52783;50.502;8.190;2022-07-18T06:13:49;28.50;26.10
66013;DHT22;52783;50.502;8.190;2022-07-18T06:16:15;28.20;25.40
66013;DHT22;52783;50.502;8.190;2022-07-18T06:18:40;27.80;26.40
66013;DHT22;52783;50.502;8.190;2022-07-18T06:21:06;27.90;27.10
66013;DHT22;52783;50.502;8.190;2022-07-18T06:23:32;27.80;26.80
66013;DHT22;52783;50.502;8.190;2022-07-18T06:25:57;27.60;27.60
66013;DHT22;52783;50.502;8.190;2022-07-18T06:28:23;27.50;27.50
66013;DHT22;52783;50.502;8.190;2022-07-18T06:30:51;27.60;27.20
66013;DHT22;52783;50.502;8.190;2022-07-18T06:33:16;27.60;27.60
66013;DHT22;52783;50.502;8.190;2022-07-18T06:35:42;28.30;26.70
66013;DHT22;52783;50.502;8.190;2022-07-18T06:38:07;28.80;26.10
66013;DHT22;52783;50.502;8.190;2022-07-18T06:40:33;28.70;25.10
66013;DHT22;52783;50.502;8.190;2022-07-18T06:42:58;29.50;25.30
66013;DHT22;52783;50.502;8.190;2022-07-18T06:45:24;29.00;25.30
66013;DHT22;52783;50.502;8.190;2022-07-18T06:47:50;28.20;25.70
66013;DHT22;52783;50.502;8.190;2022-07-18T06:50:15;27.80;27.40
66013;DHT22;52783;50.502;8.190;2022-07-18T06:52:42;28.50;26.00
66013;DHT22;52783;50.502;8.190;2022-07-18T06:55:09;28.20;24.60
66013;DHT22;52783;50.502;8.190;2022-07-18T06:57:35;28.20;24.30
66013;DHT22;52783;50.502;8.190;2022-07-18T07:00:02;28.60;25.60
66013;DHT22;52783;50.502;8.190;2022-07-18T07:02:28;28.90;24.80
66013;DHT22;52783;50.502;8.190;2022-07-18T07:04:54;28.60;25.90
66013;DHT22;52783;50.502;8.190;2022-07-18T07:07:19;28.40;24.30
66013;DHT22;52783;50.502;8.190;2022-07-18T07:09:45;28.70;23.90
66013;DHT22;52783;50.502;8.190;2022-07-18T07:12:10;28.90;24.40
66013;DHT22;52783;50.502;8.190;2022-07-18T07:14:36;29.00;23.30
66013;DHT22;52783;50.502;8.190;2022-07-18T07:17:03;29.20;23.50
66013;DHT22;52783;50.502;8.190;2022-07-18T07:19:29;28.80;23.20
66013;DHT22;52783;50.502;8.190;2022-07-18T07:21:55;29.70;23.50
66013;DHT22;52783;50.502;8.190;2022-07-18T07:24:20;29.40;22.50
66013;DHT22;52783;50.502;8.190;2022-07-18T07:26:46;29.70;22.60
66013;DHT22;52783;50.502;8.190;2022-07-18T07:29:12;29.70;22.80
66013;DHT22;52783;50.502;8.190;2022-07-18T07:31:38;29.50;22.70
66013;DHT22;52783;50.502;8.190;2022-07-18T07:34:03;30.30;23.10
66013;DHT22;52783;50.502;8.190;2022-07-18T07:36:29;29.60;22.90
66013;DHT22;52783;50.502;8.190;2022-07-18T07:38:55;29.70;22.30
66013;DHT22;52783;50.502;8.190;2022-07-18T07:41:20;29.10;22.50
66013;DHT22;52783;50.502;8.190;2022-07-18T07:43:46;29.10;22.20
66013;DHT22;52783;50.502;8.190;2022-07-18T07:46:11;29.20;22.60
66013;DHT22;52783;50.502;8.190;2022-07-18T07:48:38;28.90;23.10
66013;DHT22;52783;50.502;8.190;2022-07-18T07:51:04;29.30;22.80
66013;DHT22;52783;50.502;8.190;2022-07-18T07:53:30;29.60;22.50
66013;DHT22;52783;50.502;8.190;2022-07-18T07:55:55;30.00;23.20
66013;DHT22;52783;50.502;8.190;2022-07-18T07:58:21;29.80;22.40
66013;DHT22;52783;50.502;8.190;2022-07-18T08:00:47;29.70;22.10
66013;DHT22;52783;50.502;8.190;2022-07-18T08:03:12;30.30;21.90
66013;DHT22;52783;50.502;8.190;2022-07-18T08:05:43;30.50;22.80
66013;DHT22;52783;50.502;8.190;2022-07-18T08:08:09;30.70;22.40
66013;DHT22;52783;50.502;8.190;2022-07-18T08:10:34;30.80;22.00
66013;DHT22;52783;50.502;8.190;2022-07-18T08:13:00;31.30;21.60
66013;DHT22;52783;50.502;8.190;2022-07-18T08:15:26;30.90;21.40
66013;DHT22;52783;50.502;8.190;2022-07-18T08:17:52;32.20;21.70
66013;DHT22;52783;50.502;8.190;2022-07-18T08:20:18;32.30;20.60
66013;DHT22;52783;50.502;8.190;2022-07-18T08:23:04;31.30;20.70
66013;DHT22;52783;50.502;8.190;2022-07-18T08:25:32;32.20;20.50
66013;DHT22;52783;50.502;8.190;2022-07-18T08:27:58;33.90;20.00
66013;DHT22;52783;50.502;8.190;2022-07-18T08:30:24;34.60;19.00
66013;DHT22;52783;50.502;8.190;2022-07-18T08:32:50;34.30;18.30
66013;DHT22;52783;50.502;8.190;2022-07-18T08:35:16;33.60;17.30
66013;DHT22;52783;50.502;8.190;2022-07-18T08:37:42;33.10;17.30
66013;DHT22;52783;50.502;8.190;2022-07-18T08:40:08;33.50;18.00
66013;DHT22;52783;50.502;8.190;2022-07-18T08:42:34;34.20;17.00
66013;DHT22;52783;50.502;8.190;2022-07-18T08:45:00;33.70;17.80
66013;DHT22;52783;50.502;8.190;2022-07-18T08:47:28;34.20;18.00
66013;DHT22;52783;50.502;8.190;2022-07-18T08:49:54;33.10;17.70
66013;DHT22;52783;50.502;8.190;2022-07-18T08:52:20;33.00;17.30
66013;DHT22;52783;50.502;8.190;2022-07-18T08:54:46;33.60;17.30
66013;DHT22;52783;50.502;8.190;2022-07-18T08:57:15;33.70;16.90
66013;DHT22;52783;50.502;8.190;2022-07-18T08:59:40;34.00;16.60
66013;DHT22;52783;50.502;8.190;2022-07-18T09:02:07;34.50;17.40
66013;DHT22;52783;50.502;8.190;2022-07-18T09:04:34;34.60;17.10
66013;DHT22;52783;50.502;8.190;2022-07-18T09:07:00;34.10;17.50
66013;DHT22;52783;50.502;8.190;2022-07-18T09:09:25;34.50;17.60
66013;DHT22;52783;50.502;8.190;2022-07-18T09:12:00;34.20;17.10
66013;DHT22;52783;50.502;8.190;2022-07-18T09:14:38;34.90;17.40
66013;DHT22;52783;50.502;8.190;2022-07-18T09:19:32;35.10;17.40
66013;DHT22;52783;50.502;8.190;2022-07-18T09:25:02;35.10;16.70
66013;DHT22;52783;50.502;8.190;2022-07-18T09:27:32;35.10;16.20
66013;DHT22;52783;50.502;8.190;2022-07-18T09:30:30;35.20;16.80
66013;DHT22;52783;50.502;8.190;2022-07-18T09:35:47;34.30;15.50
66013;DHT22;52783;50.502;8.190;2022-07-18T09:38:15;34.90;16.60
66013;DHT22;52783;50.502;8.190;2022-07-18T09:40:46;34.80;16.50
66013;DHT22;52783;50.502;8.190;2022-07-18T09:43:14;34.60;16.00
66013;DHT22;52783;50.502;8.190;2022-07-18T09:45:49;34.90;16.50
66013;DHT22;52783;50.502;8.190;2022-07-18T09:48:23;34.60;16.70
66013;DHT22;52783;50.502;8.190;2022-07-18T09:50:55;34.70;16.80
66013;DHT22;52783;50.502;8.190;2022-07-18T09:53:25;34.70;16.20
66013;DHT22;52783;50.502;8.190;2022-07-18T09:55:56;35.00;17.50
66013;DHT22;52783;50.502;8.190;2022-07-18T09:58:26;35.00;16.60
66013;DHT22;52783;50.502;8.190;2022-07-18T10:00:54;35.40;16.80
66013;DHT22;52783;50.502;8.190;2022-07-18T10:03:20;34.30;16.80
66013;DHT22;52783;50.502;8.190;2022-07-18T10:05:48;35.10;16.80
66013;DHT22;52783;50.502;8.190;2022-07-18T10:08:16;34.90;16.20
66013;DHT22;52783;50.502;8.190;2022-07-18T10:10:44;34.30;16.90
66013;DHT22;52783;50.502;8.190;2022-07-18T10:13:10;35.20;16.30
66013;DHT22;52783;50.502;8.190;2022-07-18T10:15:39;34.50;16.60
66013;DHT22;52783;50.502;8.190;2022-07-18T10:18:07;34.80;16.40
66013;DHT22;52783;50.502;8.190;2022-07-18T10:23:27;35.90;15.80
66013;DHT22;52783;50.502;8.190;2022-07-18T10:33:51;33.50;17.00
66013;DHT22;52783;50.502;8.190;2022-07-18T10:36:21;32.90;17.50
66013;DHT22;52783;50.502;8.190;2022-07-18T10:39:09;32.70;18.10
66013;DHT22;52783;50.502;8.190;2022-07-18T10:47:18;31.60;19.90
66013;DHT22;52783;50.502;8.190;2022-07-18T10:57:29;31.00;21.20
66013;DHT22;52783;50.502;8.190;2022-07-18T11:21:27;30.50;21.10
66013;DHT22;52783;50.502;8.190;2022-07-18T11:24:00;30.70;22.10
66013;DHT22;52783;50.502;8.190;2022-07-18T11:26:27;31.10;21.60
66013;DHT22;52783;50.502;8.190;2022-07-18T11:29:05;30.30;20.00
66013;DHT22;52783;50.502;8.190;2022-07-18T11:31:42;30.70;19.40
66013;DHT22;52783;50.502;8.190;2022-07-18T11:34:08;30.80;19.90
66013;DHT22;52783;50.502;8.190;2022-07-18T11:36:33;31.00;22.50
66013;DHT22;52783;50.502;8.190;2022-07-18T11:39:01;30.80;20.10
66013;DHT22;52783;50.502;8.190;2022-07-18T11:41:27;30.80;21.60
66013;DHT22;52783;50.502;8.190;2022-07-18T11:43:54;30.60;20.30
66013;DHT22;52783;50.502;8.190;2022-07-18T11:46:22;30.40;21.30
66013;DHT22;52783;50.502;8.190;2022-07-18T11:48:57;30.50;21.00
66013;DHT22;52783;50.502;8.190;2022-07-18T11:51:22;30.80;20.90
66013;DHT22;52783;50.502;8.190;2022-07-18T11:53:50;31.00;20.70
66013;DHT22;52783;50.502;8.190;2022-07-18T11:56:18;30.80;21.30
66013;DHT22;52783;50.502;8.190;2022-07-18T11:58:45;31.00;21.80
66013;DHT22;52783;50.502;8.190;2022-07-18T12:01:12;31.00;20.90
66013;DHT22;52783;50.502;8.190;2022-07-18T12:03:43;31.10;20.90
66013;DHT22;52783;50.502;8.190;2022-07-18T12:08:43;31.20;19.70
66013;DHT22;52783;50.502;8.190;2022-07-18T12:11:14;31.30;20.00
66013;DHT22;52783;50.502;8.190;2022-07-18T12:16:38;31.00;20.30
66013;DHT22;52783;50.502;8.190;2022-07-18T12:19:09;31.40;19.80
66013;DHT22;52783;50.502;8.190;2022-07-18T12:29:53;31.30;19.80
66013;DHT22;52783;50.502;8.190;2022-07-18T12:32:23;31.40;20.00
66013;DHT22;52783;50.502;8.190;2022-07-18T12:37:25;31.70;20.50
66013;DHT22;52783;50.502;8.190;2022-07-18T12:40:11;31.70;19.50
66013;DHT22;52783;50.502;8.190;2022-07-18T12:42:41;31.60;18.50
66013;DHT22;52783;50.502;8.190;2022-07-18T12:45:08;31.50;19.90
66013;DHT22;52783;50.502;8.190;2022-07-18T12:47:34;31.40;20.70
66013;DHT22;52783;50.502;8.190;2022-07-18T12:50:00;31.50;19.30
66013;DHT22;52783;50.502;8.190;2022-07-18T12:52:26;31.50;19.30
66013;DHT22;52783;50.502;8.190;2022-07-18T12:54:52;31.60;19.80
66013;DHT22;52783;50.502;8.190;2022-07-18T12:57:18;31.70;18.90
66013;DHT22;52783;50.502;8.190;2022-07-18T12:59:45;31.60;18.60
66013;DHT22;52783;50.502;8.190;2022-07-18T13:02:12;31.30;18.50
66013;DHT22;52783;50.502;8.190;2022-07-18T13:04:38;31.70;19.60
66013;DHT22;52783;50.502;8.190;2022-07-18T13:07:04;31.70;19.40
66013;DHT22;52783;50.502;8.190;2022-07-18T13:09:29;31.80;19.60
66013;DHT22;52783;50.502;8.190;2022-07-18T13:11:55;31.90;20.50
66013;DHT22;52783;50.502;8.190;2022-07-18T13:14:20;32.00;19.80
66013;DHT22;52783;50.502;8.190;2022-07-18T13:16:46;31.60;18.20
66013;DHT22;52783;50.502;8.190;2022-07-18T13:19:14;31.40;18.80
66013;DHT22;52783;50.502;8.190;2022-07-18T13:21:41;31.50;19.40
66013;DHT22;52783;50.502;8.190;2022-07-18T13:24:07;31.70;19.20
66013;DHT22;52783;50.502;8.190;2022-07-18T13:26:32;31.90;20.60
66013;DHT22;52783;50.502;8.190;2022-07-18T13:28:58;32.10;19.70
66013;DHT22;52783;50.502;8.190;2022-07-18T13:31:23;31.70;18.70
66013;DHT22;52783;50.502;8.190;2022-07-18T13:33:49;31.80;19.10
66013;DHT22;52783;50.502;8.190;2022-07-18T13:36:16;32.10;19.90
66013;DHT22;52783;50.502;8.190;2022-07-18T13:38:42;32.10;19.00
66013;DHT22;52783;50.502;8.190;2022-07-18T13:41:08;31.70;18.70
66013;DHT22;52783;50.502;8.190;2022-07-18T13:43:35;31.80;19.00
66013;DHT22;52783;50.502;8.190;2022-07-18T13:46:10;32.00;19.60
66013;DHT22;52783;50.502;8.190;2022-07-18T13:48:36;32.20;19.60
66013;DHT22;52783;50.502;8.190;2022-07-18T13:51:03;32.30;19.50
66013;DHT22;52783;50.502;8.190;2022-07-18T13:53:29;32.40;19.20
66013;DHT22;52783;50.502;8.190;2022-07-18T13:55:54;32.40;19.00
66013;DHT22;52783;50.502;8.190;2022-07-18T13:58:20;32.40;19.00
66013;DHT22;52783;50.502;8.190;2022-07-18T14:00:46;32.40;19.20
66013;DHT22;52783;50.502;8.190;2022-07-18T14:03:12;32.50;19.30
66013;DHT22;52783;50.502;8.190;2022-07-18T14:05:38;32.60;19.00
66013;DHT22;52783;50.502;8.190;2022-07-18T14:08:05;32.60;19.30
66013;DHT22;52783;50.502;8.190;2022-07-18T14:10:31;32.60;18.40
66013;DHT22;52783;50.502;8.190;2022-07-18T14:12:56;32.50;19.00
66013;DHT22;52783;50.502;8.190;2022-07-18T14:15:22;32.50;18.70
66013;DHT22;52783;50.502;8.190;2022-07-18T14:17:48;32.40;18.50
66013;DHT22;52783;50.502;8.190;2022-07-18T14:20:13;32.40;18.20
66013;DHT22;52783;50.502;8.190;2022-07-18T14:22:40;32.30;18.80
66013;DHT22;52783;50.502;8.190;2022-07-18T14:25:07;32.20;18.20
66013;DHT22;52783;50.502;8.190;2022-07-18T14:27:34;32.30;18.70
66013;DHT22;52783;50.502;8.190;2022-07-18T14:29:59;32.10;18.30
66013;DHT22;52783;50.502;8.190;2022-07-18T14:32:26;32.40;19.70
66013;DHT22;52783;50.502;8.190;2022-07-18T14:34:52;32.50;19.40
66013;DHT22;52783;50.502;8.190;2022-07-18T14:37:18;32.70;18.70
66013;DHT22;52783;50.502;8.190;2022-07-18T14:39:43;32.20;18.00
66013;DHT22;52783;50.502;8.190;2022-07-18T14:42:09;32.50;18.70
66013;DHT22;52783;50.502;8.190;2022-07-18T14:44:35;32.50;19.00
66013;DHT22;52783;50.502;8.190;2022-07-18T14:47:00;32.60;19.00
66013;DHT22;52783;50.502;8.190;2022-07-18T14:49:26;32.70;18.70
66013;DHT22;52783;50.502;8.190;2022-07-18T14:51:51;32.80;18.60
66013;DHT22;52783;50.502;8.190;2022-07-18T14:54:17;32.80;18.50
66013;DHT22;52783;50.502;8.190;2022-07-18T14:56:42;32.80;18.40
66013;DHT22;52783;50.502;8.190;2022-07-18T14:59:08;32.70;18.30
66013;DHT22;52783;50.502;8.190;2022-07-18T15:01:33;32.80;18.70
66013;DHT22;52783;50.502;8.190;2022-07-18T15:03:59;32.80;18.60
66013;DHT22;52783;50.502;8.190;2022-07-18T15:06:25;32.60;18.20
66013;DHT22;52783;50.502;8.190;2022-07-18T15:08:51;32.50;18.70
66013;DHT22;52783;50.502;8.190;2022-07-18T15:11:17;32.70;19.00
66013;DHT22;52783;50.502;8.190;2022-07-18T15:13:44;32.60;19.00
66013;DHT22;52783;50.502;8.190;2022-07-18T15:16:10;32.40;18.10
66013;DHT22;52783;50.502;8.190;2022-07-18T15:18:36;32.40;18.20
66013;DHT22;52783;50.502;8.190;2022-07-18T15:21:02;32.50;19.00
66013;DHT22;52783;50.502;8.190;2022-07-18T15:23:28;32.80;19.20
66013;DHT22;52783;50.502;8.190;2022-07-18T15:25:53;32.90;19.00
66013;DHT22;52783;50.502;8.190;2022-07-18T15:28:19;32.80;18.70
66013;DHT22;52783;50.502;8.190;2022-07-18T15:30:48;32.90;19.70
66013;DHT22;52783;50.502;8.190;2022-07-18T15:33:13;33.00;18.80
66013;DHT22;52783;50.502;8.190;2022-07-18T15:35:39;33.00;18.10
66013;DHT22;52783;50.502;8.190;2022-07-18T15:38:05;32.80;18.30
66013;DHT22;52783;50.502;8.190;2022-07-18T15:40:30;32.80;19.50
66013;DHT22;52783;50.502;8.190;2022-07-18T15:42:56;32.80;18.40
66013;DHT22;52783;50.502;8.190;2022-07-18T15:45:21;32.60;18.40
66013;DHT22;52783;50.502;8.190;2022-07-18T15:47:47;32.80;18.50
66013;DHT22;52783;50.502;8.190;2022-07-18T15:50:12;32.60;18.90
66013;DHT22;52783;50.502;8.190;2022-07-18T15:52:40;32.50;19.00
66013;DHT22;52783;50.502;8.190;2022-07-18T15:55:06;32.60;19.40
66013;DHT22;52783;50.502;8.190;2022-07-18T15:57:32;32.60;19.40
66013;DHT22;52783;50.502;8.190;2022-07-18T15:59:57;32.40;18.90
66013;DHT22;52783;50.502;8.190;2022-07-18T16:02:23;32.50;19.60
66013;DHT22;52783;50.502;8.190;2022-07-18T16:04:48;32.30;19.10
66013;DHT22;52783;50.502;8.190;2022-07-18T16:07:14;32.20;20.20
66013;DHT22;52783;50.502;8.190;2022-07-18T16:09:40;32.30;19.50
66013;DHT22;52783;50.502;8.190;2022-07-18T16:12:05;32.40;19.90
66013;DHT22;52783;50.502;8.190;2022-07-18T16:14:32;32.40;19.10
66013;DHT22;52783;50.502;8.190;2022-07-18T16:16:58;32.40;19.40
66013;DHT22;52783;50.502;8.190;2022-07-18T16:19:24;32.30;19.60
66013;DHT22;52783;50.502;8.190;2022-07-18T16:21:49;32.30;19.40
66013;DHT22;52783;50.502;8.190;2022-07-18T16:24:15;32.40;19.90
66013;DHT22;52783;50.502;8.190;2022-07-18T16:26:40;32.40;19.40
66013;DHT22;52783;50.502;8.190;2022-07-18T16:29:06;32.40;19.90
66013;DHT22;52783;50.502;8.190;2022-07-18T16:31:32;32.30;20.10
66013;DHT22;52783;50.502;8.190;2022-07-18T16:33:57;32.20;20.20
66013;DHT22;52783;50.502;8.190;2022-07-18T16:36:23;32.20;20.00